sensor_id;sensor_type;location;lat;lon;timestamp;P1;durP1;ratioP1;P2;durP2;ratioP2
12603;SDS011;6367;52.508;13.284;2022-09-19T00:32:56;6.20;;;1.50;;
12603;SDS011;6367;52.508;13.284;2022-09-19T00:35:22;3.70;;;1.80;;
12603;SDS011;6367;52.508;13.284;2022-09-19T00:37:48;2.30;;;1.30;;
12603;SDS011;6367;52.508;13.284;2022-09-19T00:40:13;3.63;;;2.00;;
12603;SDS011;6367;52.508;13.284;2022-09-19T00:42:40;3.20;;;1.60;;
12603;SDS011;6367;52.508;13.284;2022-09-19T00:45:12;3.97;;;2.00;;
12603;SDS011;6367;52.508;13.284;2022-09-19T00:47:41;3.67;;;2.20;;
12603;SDS011;6367;52.508;13.284;2022-09-19T00:50:21;3.57;;;1.73;;
12603;SDS011;6367;52.508;13.284;2022-09-19T00:52:51;3.40;;;2.10;;
12603;SDS011;6367;52.508;13.284;2022-09-19T00:55:22;3.03;;;2.20;;
12603;SDS011;6367;52.508;13.284;2022-09-19T00:57:52;2.67;;;2.13;;
12603;SDS011;6367;52.508;13.284;2022-09-19T01:00:32;5.23;;;2.00;;
12603;SDS011;6367;52.508;13.284;2022-09-19T01:02:59;3.70;;;2.10;;
12603;SDS011;6367;52.508;13.284;2022-09-19T01:05:28;3.10;;;2.70;;
12603;SDS011;6367;52.508;13.284;2022-09-19T01:13:31;3.83;;;2.47;;
12603;SDS011;6367;52.508;13.284;2022-09-19T01:16:08;3.97;;;3.23;;
12603;SDS011;6367;52.508;13.284;2022-09-19T01:18:52;3.87;;;2.60;;
12603;SDS011;6367;52.508;13.284;2022-09-19T01:21:28;3.90;;;2.63;;
12603;SDS011;6367;52.508;13.284;2022-09-19T01:24:29;6.10;;;2.93;;
12603;SDS011;6367;52.508;13.284;2022-09-19T01:27:28;5.93;;;2.80;;
12603;SDS011;6367;52.508;13.284;2022-09-19T01:30:18;3.83;;;2.60;;
12603;SDS011;6367;52.508;13.284;2022-09-19T01:32:47;4.10;;;2.50;;
12603;SDS011;6367;52.508;13.284;2022-09-19T01:35:17;6.97;;;2.50;;
12603;SDS011;6367;52.508;13.284;2022-09-19T01:38:23;2.73;;;2.53;;
12603;SDS011;6367;52.508;13.284;2022-09-19T01:40:46;2.87;;;2.57;;
12603;SDS011;6367;52.508;13.284;2022-09-19T01:43:15;5.03;;;2.70;;
12603;SDS011;6367;52.508;13.284;2022-09-19T01:45:42;3.77;;;2.37;;
12603;SDS011;6367;52.508;13.284;2022-09-19T01:56:10;2.47;;;2.27;;
12603;SDS011;6367;52.508;13.284;2022-09-19T02:01:40;9.40;;;2.60;;
12603;SDS011;6367;52.508;13.284;2022-09-19T02:04:39;2.70;;;2.50;;
12603;SDS011;6367;52.508;13.284;2022-09-19T02:07:20;5.17;;;2.60;;
12603;SDS011;6367;52.508;13.284;2022-09-19T02:12:26;4.20;;;3.17;;
12603;SDS011;6367;52.508;13.284;2022-09-19T02:14:56;3.60;;;2.20;;
12603;SDS011;6367;52.508;13.284;2022-09-19T02:17:34;3.70;;;2.30;;
12603;SDS011;6367;52.508;13.284;2022-09-19T02:20:10;5.33;;;3.20;;
12603;SDS011;6367;52.508;13.284;2022-09-19T02:22:39;5.80;;;2.70;;
12603;SDS011;6367;52.508;13.284;2022-09-19T02:25:11;3.73;;;2.37;;
12603;SDS011;6367;52.508;13.284;2022-09-19T02:27:43;2.50;;;2.30;;
12603;SDS011;6367;52.508;13.284;2022-09-19T02:30:15;7.10;;;3.20;;
12603;SDS011;6367;52.508;13.284;2022-09-19T02:32:44;4.90;;;3.10;;
12603;SDS011;6367;52.508;13.284;2022-09-19T02:35:15;4.07;;;2.27;;
12603;SDS011;6367;52.508;13.284;2022-09-19T02:37:45;4.27;;;3.00;;
12603;SDS011;6367;52.508;13.284;2022-09-19T02:45:44;3.63;;;2.83;;
12603;SDS011;6367;52.508;13.284;2022-09-19T02:51:05;5.03;;;2.67;;
12603;SDS011;6367;52.508;13.284;2022-09-19T02:53:39;4.67;;;2.80;;
12603;SDS011;6367;52.508;13.284;2022-09-19T02:56:08;4.03;;;2.90;;
12603;SDS011;6367;52.508;13.284;2022-09-19T02:58:41;3.33;;;3.00;;
12603;SDS011;6367;52.508;13.284;2022-09-19T03:01:21;3.43;;;2.90;;
12603;SDS011;6367;52.508;13.284;2022-09-19T03:03:53;4.10;;;3.20;;
12603;SDS011;6367;52.508;13.284;2022-09-19T03:06:58;8.60;;;3.87;;
12603;SDS011;6367;52.508;13.284;2022-09-19T03:09:38;5.80;;;3.23;;
12603;SDS011;6367;52.508;13.284;2022-09-19T03:12:24;4.33;;;3.50;;
12603;SDS011;6367;52.508;13.284;2022-09-19T03:14:58;6.50;;;3.30;;
12603;SDS011;6367;52.508;13.284;2022-09-19T03:17:43;4.47;;;3.53;;
12603;SDS011;6367;52.508;13.284;2022-09-19T03:20:14;6.87;;;3.80;;
12603;SDS011;6367;52.508;13.284;2022-09-19T03:22:41;8.30;;;4.60;;
12603;SDS011;6367;52.508;13.284;2022-09-19T03:25:07;6.90;;;4.10;;
12603;SDS011;6367;52.508;13.284;2022-09-19T03:27:34;4.73;;;3.73;;
12603;SDS011;6367;52.508;13.284;2022-09-19T03:30:06;4.43;;;3.30;;
12603;SDS011;6367;52.508;13.284;2022-09-19T03:32:34;4.43;;;3.50;;
12603;SDS011;6367;52.508;13.284;2022-09-19T03:35:00;4.27;;;3.60;;
12603;SDS011;6367;52.508;13.284;2022-09-19T03:37:27;4.20;;;3.57;;
12603;SDS011;6367;52.508;13.284;2022-09-19T03:39:53;5.33;;;3.40;;
12603;SDS011;6367;52.508;13.284;2022-09-19T03:42:19;5.00;;;3.30;;
12603;SDS011;6367;52.508;13.284;2022-09-19T03:44:45;4.90;;;4.40;;
12603;SDS011;6367;52.508;13.284;2022-09-19T03:47:11;7.30;;;3.97;;
12603;SDS011;6367;52.508;13.284;2022-09-19T03:49:36;4.73;;;3.90;;
12603;SDS011;6367;52.508;13.284;2022-09-19T03:52:02;6.80;;;4.73;;
12603;SDS011;6367;52.508;13.284;2022-09-19T03:54:28;6.90;;;4.03;;
12603;SDS011;6367;52.508;13.284;2022-09-19T03:56:54;4.77;;;3.87;;
12603;SDS011;6367;52.508;13.284;2022-09-19T03:59:20;7.47;;;4.20;;
12603;SDS011;6367;52.508;13.284;2022-09-19T04:01:45;5.50;;;4.40;;
12603;SDS011;6367;52.508;13.284;2022-09-19T04:04:11;5.17;;;4.77;;
12603;SDS011;6367;52.508;13.284;2022-09-19T04:06:37;5.40;;;4.60;;
12603;SDS011;6367;52.508;13.284;2022-09-19T04:09:03;6.03;;;4.47;;
12603;SDS011;6367;52.508;13.284;2022-09-19T04:11:29;6.00;;;5.50;;
12603;SDS011;6367;52.508;13.284;2022-09-19T04:13:55;5.00;;;4.50;;
12603;SDS011;6367;52.508;13.284;2022-09-19T04:16:21;5.00;;;4.60;;
12603;SDS011;6367;52.508;13.284;2022-09-19T04:18:49;5.07;;;4.67;;
12603;SDS011;6367;52.508;13.284;2022-09-19T04:21:16;5.33;;;4.87;;
12603;SDS011;6367;52.508;13.284;2022-09-19T04:23:42;5.10;;;4.30;;
12603;SDS011;6367;52.508;13.284;2022-09-19T04:26:08;5.47;;;5.00;;
12603;SDS011;6367;52.508;13.284;2022-09-19T04:28:35;9.67;;;5.10;;
12603;SDS011;6367;52.508;13.284;2022-09-19T04:31:02;5.13;;;4.63;;
12603;SDS011;6367;52.508;13.284;2022-09-19T04:33:28;5.40;;;4.80;;
12603;SDS011;6367;52.508;13.284;2022-09-19T04:35:53;5.77;;;5.17;;
12603;SDS011;6367;52.508;13.284;2022-09-19T04:38:22;6.03;;;5.53;;
12603;SDS011;6367;52.508;13.284;2022-09-19T04:40:48;4.73;;;4.33;;
12603;SDS011;6367;52.508;13.284;2022-09-19T04:43:15;7.30;;;5.30;;
12603;SDS011;6367;52.508;13.284;2022-09-19T04:45:43;11.13;;;4.70;;
12603;SDS011;6367;52.508;13.284;2022-09-19T04:48:12;5.70;;;4.67;;
12603;SDS011;6367;52.508;13.284;2022-09-19T04:50:38;5.63;;;5.07;;
12603;SDS011;6367;52.508;13.284;2022-09-19T04:53:04;6.33;;;4.90;;
12603;SDS011;6367;52.508;13.284;2022-09-19T04:55:30;8.90;;;5.00;;
12603;SDS011;6367;52.508;13.284;2022-09-19T04:57:57;5.30;;;4.80;;
12603;SDS011;6367;52.508;13.284;2022-09-19T05:00:25;7.60;;;5.00;;
12603;SDS011;6367;52.508;13.284;2022-09-19T05:03:12;6.17;;;5.67;;
12603;SDS011;6367;52.508;13.284;2022-09-19T05:05:40;5.87;;;5.27;;
12603;SDS011;6367;52.508;13.284;2022-09-19T05:08:12;5.60;;;5.10;;
12603;SDS011;6367;52.508;13.284;2022-09-19T05:10:40;6.00;;;5.17;;
12603;SDS011;6367;52.508;13.284;2022-09-19T05:13:07;5.23;;;4.73;;
12603;SDS011;6367;52.508;13.284;2022-09-19T05:15:33;5.20;;;4.73;;
12603;SDS011;6367;52.508;13.284;2022-09-19T05:17:59;4.63;;;4.23;;
12603;SDS011;6367;52.508;13.284;2022-09-19T05:20:25;4.93;;;4.53;;
12603;SDS011;6367;52.508;13.284;2022-09-19T05:22:53;4.47;;;4.07;;
12603;SDS011;6367;52.508;13.284;2022-09-19T05:25:26;5.43;;;4.93;;
12603;SDS011;6367;52.508;13.284;2022-09-19T05:27:53;7.73;;;4.67;;
12603;SDS011;6367;52.508;13.284;2022-09-19T05:30:21;4.60;;;4.20;;
12603;SDS011;6367;52.508;13.284;2022-09-19T05:32:49;5.97;;;5.30;;
12603;SDS011;6367;52.508;13.284;2022-09-19T05:35:15;5.27;;;4.77;;
12603;SDS011;6367;52.508;13.284;2022-09-19T05:37:41;5.87;;;4.83;;
12603;SDS011;6367;52.508;13.284;2022-09-19T05:40:07;4.33;;;3.50;;
12603;SDS011;6367;52.508;13.284;2022-09-19T05:42:38;4.73;;;3.70;;
12603;SDS011;6367;52.508;13.284;2022-09-19T05:45:08;4.57;;;4.17;;
12603;SDS011;6367;52.508;13.284;2022-09-19T05:47:35;5.80;;;4.73;;
12603;SDS011;6367;52.508;13.284;2022-09-19T05:50:04;3.60;;;3.30;;
12603;SDS011;6367;52.508;13.284;2022-09-19T05:52:33;6.50;;;3.40;;
12603;SDS011;6367;52.508;13.284;2022-09-19T05:55:18;8.03;;;4.17;;
12603;SDS011;6367;52.508;13.284;2022-09-19T05:57:48;6.67;;;3.63;;
12603;SDS011;6367;52.508;13.284;2022-09-19T06:00:19;4.70;;;3.37;;
12603;SDS011;6367;52.508;13.284;2022-09-19T06:03:19;3.93;;;2.70;;
12603;SDS011;6367;52.508;13.284;2022-09-19T06:05:45;6.07;;;3.30;;
12603;SDS011;6367;52.508;13.284;2022-09-19T06:08:20;3.30;;;2.73;;
12603;SDS011;6367;52.508;13.284;2022-09-19T06:10:47;4.30;;;3.10;;
12603;SDS011;6367;52.508;13.284;2022-09-19T06:13:14;2.80;;;2.60;;
12603;SDS011;6367;52.508;13.284;2022-09-19T06:15:42;2.93;;;2.33;;
12603;SDS011;6367;52.508;13.284;2022-09-19T06:18:08;5.20;;;2.70;;
12603;SDS011;6367;52.508;13.284;2022-09-19T06:20:37;4.23;;;2.20;;
12603;SDS011;6367;52.508;13.284;2022-09-19T06:23:04;3.87;;;2.70;;
12603;SDS011;6367;52.508;13.284;2022-09-19T06:25:32;4.57;;;2.67;;
12603;SDS011;6367;52.508;13.284;2022-09-19T06:27:59;5.30;;;2.47;;
12603;SDS011;6367;52.508;13.284;2022-09-19T06:30:30;3.07;;;2.87;;
12603;SDS011;6367;52.508;13.284;2022-09-19T06:32:56;4.67;;;2.80;;
12603;SDS011;6367;52.508;13.284;2022-09-19T06:35:23;4.07;;;2.30;;
12603;SDS011;6367;52.508;13.284;2022-09-19T06:37:56;5.57;;;2.77;;
12603;SDS011;6367;52.508;13.284;2022-09-19T06:40:26;2.67;;;2.47;;
12603;SDS011;6367;52.508;13.284;2022-09-19T06:42:56;3.40;;;3.10;;
12603;SDS011;6367;52.508;13.284;2022-09-19T06:45:30;3.70;;;2.93;;
12603;SDS011;6367;52.508;13.284;2022-09-19T06:47:57;3.00;;;2.70;;
12603;SDS011;6367;52.508;13.284;2022-09-19T06:50:24;3.20;;;2.90;;
12603;SDS011;6367;52.508;13.284;2022-09-19T06:52:50;3.43;;;2.90;;
12603;SDS011;6367;52.508;13.284;2022-09-19T06:55:15;6.17;;;3.30;;
12603;SDS011;6367;52.508;13.284;2022-09-19T06:57:41;7.90;;;3.00;;
12603;SDS011;6367;52.508;13.284;2022-09-19T07:00:07;3.30;;;3.00;;
12603;SDS011;6367;52.508;13.284;2022-09-19T07:02:33;5.20;;;2.90;;
12603;SDS011;6367;52.508;13.284;2022-09-19T07:04:58;2.97;;;2.67;;
12603;SDS011;6367;52.508;13.284;2022-09-19T07:07:24;4.70;;;2.80;;
12603;SDS011;6367;52.508;13.284;2022-09-19T07:09:49;3.83;;;2.43;;
12603;SDS011;6367;52.508;13.284;2022-09-19T07:12:15;3.13;;;2.07;;
12603;SDS011;6367;52.508;13.284;2022-09-19T07:14:40;7.83;;;2.50;;
12603;SDS011;6367;52.508;13.284;2022-09-19T07:17:06;1.97;;;1.87;;
12603;SDS011;6367;52.508;13.284;2022-09-19T07:19:32;5.97;;;2.67;;
12603;SDS011;6367;52.508;13.284;2022-09-19T07:21:57;2.60;;;1.90;;
12603;SDS011;6367;52.508;13.284;2022-09-19T07:24:23;3.33;;;2.50;;
12603;SDS011;6367;52.508;13.284;2022-09-19T07:26:49;2.53;;;1.63;;
12603;SDS011;6367;52.508;13.284;2022-09-19T07:29:14;5.60;;;2.73;;
12603;SDS011;6367;52.508;13.284;2022-09-19T07:31:40;4.70;;;2.70;;
12603;SDS011;6367;52.508;13.284;2022-09-19T07:34:06;2.20;;;2.03;;
12603;SDS011;6367;52.508;13.284;2022-09-19T07:36:31;3.33;;;2.10;;
12603;SDS011;6367;52.508;13.284;2022-09-19T07:38:57;2.37;;;2.17;;
12603;SDS011;6367;52.508;13.284;2022-09-19T07:41:22;2.70;;;2.00;;
12603;SDS011;6367;52.508;13.284;2022-09-19T07:43:48;3.73;;;2.10;;
12603;SDS011;6367;52.508;13.284;2022-09-19T07:46:14;4.80;;;2.30;;
12603;SDS011;6367;52.508;13.284;2022-09-19T07:48:41;4.60;;;2.10;;
12603;SDS011;6367;52.508;13.284;2022-09-19T07:51:07;2.93;;;2.10;;
12603;SDS011;6367;52.508;13.284;2022-09-19T07:53:33;2.20;;;2.00;;
12603;SDS011;6367;52.508;13.284;2022-09-19T07:56:00;5.13;;;2.60;;
12603;SDS011;6367;52.508;13.284;2022-09-19T07:58:26;3.03;;;1.93;;
12603;SDS011;6367;52.508;13.284;2022-09-19T08:00:52;4.07;;;2.80;;
12603;SDS011;6367;52.508;13.284;2022-09-19T08:03:19;4.43;;;2.43;;
12603;SDS011;6367;52.508;13.284;2022-09-19T08:05:46;2.70;;;1.63;;
12603;SDS011;6367;52.508;13.284;2022-09-19T08:08:13;4.70;;;2.20;;
12603;SDS011;6367;52.508;13.284;2022-09-19T08:10:41;3.90;;;2.17;;
12603;SDS011;6367;52.508;13.284;2022-09-19T08:13:07;3.07;;;1.90;;
12603;SDS011;6367;52.508;13.284;2022-09-19T08:15:34;2.87;;;2.20;;
12603;SDS011;6367;52.508;13.284;2022-09-19T08:18:02;1.60;;;1.50;;
12603;SDS011;6367;52.508;13.284;2022-09-19T08:20:33;6.53;;;2.20;;
12603;SDS011;6367;52.508;13.284;2022-09-19T08:23:05;4.63;;;2.57;;
12603;SDS011;6367;52.508;13.284;2022-09-19T08:25:33;3.37;;;2.10;;
12603;SDS011;6367;52.508;13.284;2022-09-19T08:28:00;2.50;;;1.60;;
12603;SDS011;6367;52.508;13.284;2022-09-19T08:30:27;2.30;;;1.70;;
12603;SDS011;6367;52.508;13.284;2022-09-19T08:32:53;2.77;;;1.70;;
12603;SDS011;6367;52.508;13.284;2022-09-19T08:35:20;1.77;;;1.67;;
12603;SDS011;6367;52.508;13.284;2022-09-19T08:37:46;1.53;;;1.40;;
12603;SDS011;6367;52.508;13.284;2022-09-19T08:40:16;4.27;;;2.03;;
12603;SDS011;6367;52.508;13.284;2022-09-19T08:45:24;4.30;;;1.73;;
12603;SDS011;6367;52.508;13.284;2022-09-19T08:47:58;1.63;;;1.53;;
12603;SDS011;6367;52.508;13.284;2022-09-19T08:50:31;2.53;;;2.33;;
12603;SDS011;6367;52.508;13.284;2022-09-19T08:53:00;3.60;;;2.60;;
12603;SDS011;6367;52.508;13.284;2022-09-19T08:55:30;1.83;;;1.73;;
12603;SDS011;6367;52.508;13.284;2022-09-19T09:00:31;4.77;;;3.40;;
12603;SDS011;6367;52.508;13.284;2022-09-19T09:03:03;4.70;;;2.50;;
12603;SDS011;6367;52.508;13.284;2022-09-19T09:05:33;4.53;;;3.60;;
12603;SDS011;6367;52.508;13.284;2022-09-19T09:08:06;4.80;;;2.33;;
12603;SDS011;6367;52.508;13.284;2022-09-19T09:10:42;3.60;;;2.13;;
12603;SDS011;6367;52.508;13.284;2022-09-19T09:16:15;1.80;;;1.60;;
12603;SDS011;6367;52.508;13.284;2022-09-19T09:24:37;3.93;;;1.97;;
12603;SDS011;6367;52.508;13.284;2022-09-19T09:27:08;2.07;;;1.87;;
12603;SDS011;6367;52.508;13.284;2022-09-19T09:29:37;1.67;;;1.57;;
12603;SDS011;6367;52.508;13.284;2022-09-19T09:32:14;1.77;;;1.50;;
12603;SDS011;6367;52.508;13.284;2022-09-19T09:40:25;2.80;;;1.60;;
12603;SDS011;6367;52.508;13.284;2022-09-19T09:43:25;2.03;;;1.83;;
12603;SDS011;6367;52.508;13.284;2022-09-19T09:45:54;1.63;;;1.43;;
12603;SDS011;6367;52.508;13.284;2022-09-19T09:48:26;4.33;;;1.53;;
12603;SDS011;6367;52.508;13.284;2022-09-19T09:57:19;1.60;;;1.40;;
12603;SDS011;6367;52.508;13.284;2022-09-19T10:00:00;1.70;;;1.07;;
12603;SDS011;6367;52.508;13.284;2022-09-19T10:06:02;1.70;;;1.30;;
12603;SDS011;6367;52.508;13.284;2022-09-19T10:08:41;3.10;;;1.63;;
12603;SDS011;6367;52.508;13.284;2022-09-19T10:14:23;2.87;;;2.10;;
12603;SDS011;6367;52.508;13.284;2022-09-19T10:16:53;2.20;;;1.87;;
12603;SDS011;6367;52.508;13.284;2022-09-19T10:19:39;1.13;;;1.03;;
12603;SDS011;6367;52.508;13.284;2022-09-19T10:22:10;1.10;;;0.90;;
12603;SDS011;6367;52.508;13.284;2022-09-19T10:32:30;1.03;;;0.70;;
12603;SDS011;6367;52.508;13.284;2022-09-19T10:34:59;0.80;;;0.70;;
12603;SDS011;6367;52.508;13.284;2022-09-19T10:37:26;2.30;;;0.90;;
12603;SDS011;6367;52.508;13.284;2022-09-19T10:39:57;1.23;;;0.90;;
12603;SDS011;6367;52.508;13.284;2022-09-19T10:42:30;1.10;;;0.90;;
12603;SDS011;6367;52.508;13.284;2022-09-19T10:45:04;1.30;;;0.57;;
12603;SDS011;6367;52.508;13.284;2022-09-19T10:47:42;1.33;;;0.70;;
12603;SDS011;6367;52.508;13.284;2022-09-19T10:50:11;0.70;;;0.70;;
12603;SDS011;6367;52.508;13.284;2022-09-19T10:52:39;1.17;;;0.90;;
12603;SDS011;6367;52.508;13.284;2022-09-19T10:55:05;1.63;;;1.00;;
12603;SDS011;6367;52.508;13.284;2022-09-19T10:57:57;1.33;;;0.90;;
12603;SDS011;6367;52.508;13.284;2022-09-19T11:08:41;1.20;;;1.00;;
12603;SDS011;6367;52.508;13.284;2022-09-19T11:14:06;1.73;;;0.90;;
12603;SDS011;6367;52.508;13.284;2022-09-19T11:25:18;1.67;;;0.73;;
12603;SDS011;6367;52.508;13.284;2022-09-19T11:28:03;1.23;;;1.13;;
12603;SDS011;6367;52.508;13.284;2022-09-19T11:33:33;1.77;;;1.00;;
12603;SDS011;6367;52.508;13.284;2022-09-19T11:36:13;1.80;;;0.90;;
12603;SDS011;6367;52.508;13.284;2022-09-19T11:46:41;1.07;;;0.80;;
12603;SDS011;6367;52.508;13.284;2022-09-19T12:04:23;0.80;;;0.80;;
12603;SDS011;6367;52.508;13.284;2022-09-19T12:09:33;1.37;;;0.90;;
12603;SDS011;6367;52.508;13.284;2022-09-19T12:17:24;1.63;;;1.00;;
12603;SDS011;6367;52.508;13.284;2022-09-19T12:19:58;2.27;;;1.10;;
12603;SDS011;6367;52.508;13.284;2022-09-19T12:22:43;3.27;;;1.10;;
12603;SDS011;6367;52.508;13.284;2022-09-19T12:25:15;6.10;;;1.53;;
12603;SDS011;6367;52.508;13.284;2022-09-19T12:27:57;2.60;;;1.43;;
12603;SDS011;6367;52.508;13.284;2022-09-19T12:30:44;1.57;;;1.30;;
12603;SDS011;6367;52.508;13.284;2022-09-19T12:33:26;1.03;;;0.90;;
12603;SDS011;6367;52.508;13.284;2022-09-19T12:38:57;2.60;;;0.93;;
12603;SDS011;6367;52.508;13.284;2022-09-19T12:41:38;2.73;;;1.00;;
12603;SDS011;6367;52.508;13.284;2022-09-19T12:44:19;2.13;;;1.00;;
12603;SDS011;6367;52.508;13.284;2022-09-19T12:47:10;1.33;;;1.10;;
12603;SDS011;6367;52.508;13.284;2022-09-19T13:00:51;1.57;;;1.00;;
12603;SDS011;6367;52.508;13.284;2022-09-19T13:04:27;2.03;;;0.97;;
12603;SDS011;6367;52.508;13.284;2022-09-19T13:06:50;1.80;;;0.87;;
12603;SDS011;6367;52.508;13.284;2022-09-19T13:09:21;2.27;;;1.20;;
12603;SDS011;6367;52.508;13.284;2022-09-19T13:11:57;1.10;;;1.00;;
12603;SDS011;6367;52.508;13.284;2022-09-19T13:16:59;1.87;;;1.17;;
12603;SDS011;6367;52.508;13.284;2022-09-19T13:19:45;1.47;;;1.30;;
12603;SDS011;6367;52.508;13.284;2022-09-19T13:22:40;1.40;;;1.20;;
12603;SDS011;6367;52.508;13.284;2022-09-19T13:25:32;2.43;;;1.20;;
12603;SDS011;6367;52.508;13.284;2022-09-19T13:30:47;1.77;;;1.10;;
12603;SDS011;6367;52.508;13.284;2022-09-19T13:33:55;2.33;;;1.50;;
12603;SDS011;6367;52.508;13.284;2022-09-19T13:38:50;5.47;;;1.57;;
12603;SDS011;6367;52.508;13.284;2022-09-19T13:43:58;1.27;;;1.17;;
12603;SDS011;6367;52.508;13.284;2022-09-19T13:46:35;2.50;;;1.60;;
12603;SDS011;6367;52.508;13.284;2022-09-19T13:51:44;1.87;;;1.30;;
12603;SDS011;6367;52.508;13.284;2022-09-19T13:57:32;2.63;;;1.33;;
12603;SDS011;6367;52.508;13.284;2022-09-19T13:59:44;2.50;;;1.40;;
12603;SDS011;6367;52.508;13.284;2022-09-19T14:05:00;2.73;;;1.40;;
12603;SDS011;6367;52.508;13.284;2022-09-19T14:10:24;3.33;;;1.47;;
12603;SDS011;6367;52.508;13.284;2022-09-19T14:13:03;1.20;;;1.10;;
12603;SDS011;6367;52.508;13.284;2022-09-19T14:21:03;4.20;;;1.43;;
12603;SDS011;6367;52.508;13.284;2022-09-19T14:23:40;1.47;;;1.23;;
12603;SDS011;6367;52.508;13.284;2022-09-19T14:47:53;2.00;;;1.53;;
12603;SDS011;6367;52.508;13.284;2022-09-19T14:50:25;1.70;;;1.20;;
12603;SDS011;6367;52.508;13.284;2022-09-19T14:53:02;2.30;;;1.20;;
12603;SDS011;6367;52.508;13.284;2022-09-19T14:55:43;2.60;;;1.30;;
12603;SDS011;6367;52.508;13.284;2022-09-19T14:58:23;1.57;;;1.30;;
12603;SDS011;6367;52.508;13.284;2022-09-19T15:00:52;1.93;;;1.77;;
12603;SDS011;6367;52.508;13.284;2022-09-19T15:03:21;2.57;;;2.37;;
12603;SDS011;6367;52.508;13.284;2022-09-19T15:05:47;4.23;;;3.93;;
12603;SDS011;6367;52.508;13.284;2022-09-19T15:08:14;5.60;;;5.10;;
12603;SDS011;6367;52.508;13.284;2022-09-19T15:10:46;6.83;;;4.70;;
12603;SDS011;6367;52.508;13.284;2022-09-19T15:13:22;4.17;;;3.37;;
12603;SDS011;6367;52.508;13.284;2022-09-19T15:15:51;2.20;;;1.90;;
12603;SDS011;6367;52.508;13.284;2022-09-19T15:18:23;1.47;;;1.30;;
12603;SDS011;6367;52.508;13.284;2022-09-19T15:21:00;1.93;;;1.30;;
12603;SDS011;6367;52.508;13.284;2022-09-19T15:23:29;1.77;;;1.20;;
12603;SDS011;6367;52.508;13.284;2022-09-19T15:26:04;2.70;;;1.03;;
12603;SDS011;6367;52.508;13.284;2022-09-19T15:28:32;1.57;;;1.00;;
12603;SDS011;6367;52.508;13.284;2022-09-19T15:31:03;1.43;;;1.00;;
12603;SDS011;6367;52.508;13.284;2022-09-19T15:33:43;1.10;;;1.00;;
12603;SDS011;6367;52.508;13.284;2022-09-19T15:36:14;2.40;;;1.00;;
12603;SDS011;6367;52.508;13.284;2022-09-19T15:38:47;1.27;;;1.17;;
12603;SDS011;6367;52.508;13.284;2022-09-19T15:41:14;1.93;;;1.27;;
12603;SDS011;6367;52.508;13.284;2022-09-19T15:43:44;1.60;;;0.87;;
12603;SDS011;6367;52.508;13.284;2022-09-19T15:46:59;0.90;;;0.90;;
12603;SDS011;6367;52.508;13.284;2022-09-19T15:49:03;1.37;;;0.90;;
12603;SDS011;6367;52.508;13.284;2022-09-19T15:51:31;1.67;;;1.17;;
12603;SDS011;6367;52.508;13.284;2022-09-19T15:54:18;1.33;;;0.90;;
12603;SDS011;6367;52.508;13.284;2022-09-19T15:56:50;1.87;;;1.00;;
12603;SDS011;6367;52.508;13.284;2022-09-19T15:59:16;1.93;;;1.20;;
12603;SDS011;6367;52.508;13.284;2022-09-19T16:01:45;2.03;;;1.20;;
12603;SDS011;6367;52.508;13.284;2022-09-19T16:04:29;2.00;;;0.90;;
12603;SDS011;6367;52.508;13.284;2022-09-19T16:06:56;2.07;;;1.20;;
12603;SDS011;6367;52.508;13.284;2022-09-19T16:09:43;4.47;;;1.37;;
12603;SDS011;6367;52.508;13.284;2022-09-19T16:14:58;2.90;;;1.20;;
12603;SDS011;6367;52.508;13.284;2022-09-19T16:22:55;1.43;;;0.90;;
12603;SDS011;6367;52.508;13.284;2022-09-19T16:25:46;0.90;;;0.90;;
12603;SDS011;6367;52.508;13.284;2022-09-19T16:28:26;3.13;;;0.80;;
12603;SDS011;6367;52.508;13.284;2022-09-19T16:31:19;1.10;;;1.00;;
12603;SDS011;6367;52.508;13.284;2022-09-19T16:33:56;1.10;;;1.03;;
12603;SDS011;6367;52.508;13.284;2022-09-19T16:36:27;2.00;;;1.10;;
12603;SDS011;6367;52.508;13.284;2022-09-19T16:46:46;1.57;;;0.87;;
12603;SDS011;6367;52.508;13.284;2022-09-19T16:49:39;3.93;;;0.90;;
12603;SDS011;6367;52.508;13.284;2022-09-19T16:52:06;1.83;;;0.90;;
12603;SDS011;6367;52.508;13.284;2022-09-19T16:54:44;1.93;;;1.20;;
12603;SDS011;6367;52.508;13.284;2022-09-19T16:57:10;0.80;;;0.80;;
12603;SDS011;6367;52.508;13.284;2022-09-19T16:59:39;1.07;;;0.90;;
12603;SDS011;6367;52.508;13.284;2022-09-19T17:02:12;1.20;;;1.00;;
12603;SDS011;6367;52.508;13.284;2022-09-19T17:04:42;1.47;;;0.90;;
12603;SDS011;6367;52.508;13.284;2022-09-19T17:07:09;2.03;;;1.30;;
12603;SDS011;6367;52.508;13.284;2022-09-19T17:09:36;3.30;;;1.30;;
12603;SDS011;6367;52.508;13.284;2022-09-19T17:12:01;1.27;;;1.10;;
12603;SDS011;6367;52.508;13.284;2022-09-19T17:14:28;1.30;;;1.20;;
12603;SDS011;6367;52.508;13.284;2022-09-19T17:16:54;2.20;;;1.60;;
12603;SDS011;6367;52.508;13.284;2022-09-19T17:19:20;2.13;;;1.20;;
12603;SDS011;6367;52.508;13.284;2022-09-19T17:21:46;1.30;;;1.20;;
12603;SDS011;6367;52.508;13.284;2022-09-19T17:24:12;1.13;;;1.03;;
12603;SDS011;6367;52.508;13.284;2022-09-19T17:26:38;1.13;;;0.90;;
12603;SDS011;6367;52.508;13.284;2022-09-19T17:29:04;1.53;;;0.93;;
12603;SDS011;6367;52.508;13.284;2022-09-19T17:31:30;3.37;;;1.70;;
12603;SDS011;6367;52.508;13.284;2022-09-19T17:33:56;1.40;;;1.10;;
12603;SDS011;6367;52.508;13.284;2022-09-19T17:36:22;2.87;;;1.30;;
12603;SDS011;6367;52.508;13.284;2022-09-19T17:38:47;1.60;;;1.43;;
12603;SDS011;6367;52.508;13.284;2022-09-19T17:41:13;3.50;;;0.97;;
12603;SDS011;6367;52.508;13.284;2022-09-19T17:43:40;2.73;;;1.27;;
12603;SDS011;6367;52.508;13.284;2022-09-19T17:46:08;2.93;;;1.43;;
12603;SDS011;6367;52.508;13.284;2022-09-19T17:48:35;2.20;;;1.40;;
12603;SDS011;6367;52.508;13.284;2022-09-19T17:51:16;3.30;;;1.50;;
12603;SDS011;6367;52.508;13.284;2022-09-19T17:53:43;2.60;;;1.67;;
12603;SDS011;6367;52.508;13.284;2022-09-19T17:56:10;2.87;;;1.70;;
12603;SDS011;6367;52.508;13.284;2022-09-19T17:58:37;3.40;;;1.93;;
12603;SDS011;6367;52.508;13.284;2022-09-19T18:01:03;2.20;;;1.70;;
12603;SDS011;6367;52.508;13.284;2022-09-19T18:03:47;3.97;;;1.90;;
12603;SDS011;6367;52.508;13.284;2022-09-19T18:06:15;2.47;;;1.53;;
12603;SDS011;6367;52.508;13.284;2022-09-19T18:08:41;2.77;;;1.40;;
12603;SDS011;6367;52.508;13.284;2022-09-19T18:11:07;3.10;;;1.90;;
12603;SDS011;6367;52.508;13.284;2022-09-19T18:13:34;1.47;;;1.27;;
12603;SDS011;6367;52.508;13.284;2022-09-19T18:16:04;2.13;;;1.20;;
12603;SDS011;6367;52.508;13.284;2022-09-19T18:18:31;1.63;;;1.27;;
12603;SDS011;6367;52.508;13.284;2022-09-19T18:20:57;3.03;;;1.40;;
12603;SDS011;6367;52.508;13.284;2022-09-19T18:23:27;3.57;;;1.50;;
12603;SDS011;6367;52.508;13.284;2022-09-19T18:25:58;4.53;;;1.57;;
12603;SDS011;6367;52.508;13.284;2022-09-19T18:28:26;2.00;;;1.23;;
12603;SDS011;6367;52.508;13.284;2022-09-19T18:30:56;3.03;;;1.67;;
12603;SDS011;6367;52.508;13.284;2022-09-19T18:33:22;2.70;;;1.30;;
12603;SDS011;6367;52.508;13.284;2022-09-19T18:35:49;5.77;;;2.30;;
12603;SDS011;6367;52.508;13.284;2022-09-19T18:38:15;2.00;;;1.40;;
12603;SDS011;6367;52.508;13.284;2022-09-19T18:40:41;4.40;;;2.40;;
12603;SDS011;6367;52.508;13.284;2022-09-19T18:43:07;2.13;;;1.40;;
12603;SDS011;6367;52.508;13.284;2022-09-19T18:45:33;1.60;;;1.30;;
12603;SDS011;6367;52.508;13.284;2022-09-19T18:47:59;3.90;;;1.70;;
12603;SDS011;6367;52.508;13.284;2022-09-19T18:50:25;3.00;;;1.60;;
12603;SDS011;6367;52.508;13.284;2022-09-19T18:52:51;2.60;;;1.40;;
12603;SDS011;6367;52.508;13.284;2022-09-19T18:55:17;4.10;;;1.73;;
12603;SDS011;6367;52.508;13.284;2022-09-19T18:57:44;4.83;;;1.60;;
12603;SDS011;6367;52.508;13.284;2022-09-19T19:00:10;5.17;;;1.37;;
12603;SDS011;6367;52.508;13.284;2022-09-19T19:02:36;3.00;;;1.47;;
12603;SDS011;6367;52.508;13.284;2022-09-19T19:05:04;4.90;;;2.37;;